»·PEaware :: QXE2674 KPSP-KPHX

QXE2674 :: KPSP-KPHX

FLIGHT INFORMATION

Flight Status: Arrived
Operator:
Horizon Air
More flights by this operator :: More flights under this callsign
Pilot: Walter H. (552)
Aircraft: Unknown
(DHC8)
More flights by this aircraft type
Origin: KPSP Palm Springs Intl
United States
Destination: KPHX Phoenix Sky Harbor Intl
United States
More flights between these airports :: More routes between these airports
Route: +CATH1 PSP BLH
File this flight plan on PilotEdge
Remarks:
Altitude:
(Current/Filed)
21,000ft
Speed:
(Current/Filed)
330kts
Departed: 15-Jul-18 04:10 PM
Arrived: 15-Jul-18 05:02 PM
Distance/Time
Traveled:
226nm/0:52
Distance/Time
To Go:
Arrived

Flight Plot

Page will automatically refresh every two minutes.

Flight plan parsing failed; only flown route is shown


Map Options




Map Legend


Flown Route
Filed Route
Departure Airport
Arrival Airport
Navaid (VOR, NDB)
Fix

Horizontal Profiles

Position Reports

Time Latitude Longitude Heading Altitude Ground
Speed
15-Jul-18 15:45 33.823902 -116.507270 180 484ft 0kts
15-Jul-18 15:46 33.823902 -116.507270 180 484ft 0kts
15-Jul-18 15:47 33.823902 -116.507270 180 484ft 0kts
15-Jul-18 15:48 33.823902 -116.507270 180 484ft 0kts
15-Jul-18 15:49 33.823902 -116.507270 180 484ft 0kts
15-Jul-18 15:50 33.823902 -116.507270 180 484ft 0kts
15-Jul-18 15:51 33.823902 -116.507270 180 484ft 0kts
15-Jul-18 15:52 33.823902 -116.507270 180 484ft 0kts
15-Jul-18 15:53 33.823902 -116.507270 180 484ft 0kts
15-Jul-18 15:54 33.823902 -116.507270 180 484ft 0kts
15-Jul-18 15:55 33.823902 -116.507270 180 484ft 0kts
15-Jul-18 15:56 33.823902 -116.507270 180 484ft 0kts
15-Jul-18 15:57 33.823902 -116.507270 180 484ft 0kts
15-Jul-18 15:58 33.823902 -116.507270 180 484ft 0kts
15-Jul-18 15:59 33.823902 -116.507270 180 484ft 0kts
15-Jul-18 16:00 33.823961 -116.507271 179 484ft 3kts
15-Jul-18 16:01 33.824337 -116.507304 172 484ft 0kts
15-Jul-18 16:02 33.824522 -116.507333 172 484ft 0kts
15-Jul-18 16:03 33.824508 -116.507328 165 484ft 0kts
15-Jul-18 16:04 33.823891 -116.505326 147 484ft 11kts
15-Jul-18 16:05 33.821247 -116.502101 143 484ft 20kts
15-Jul-18 16:06 33.818425 -116.498718 65 484ft 0kts
15-Jul-18 16:07 33.818425 -116.498720 65 484ft 0kts
15-Jul-18 16:08 33.818425 -116.498720 65 484ft 0kts
15-Jul-18 16:09 33.818425 -116.498720 65 484ft 0kts
15-Jul-18 16:10 33.819361 -116.498437 323 484ft 0kts
15-Jul-18 16:11 33.843859 -116.520324 324 1295ft 169kts
15-Jul-18 16:12 33.882164 -116.549146 333 4243ft 147kts
15-Jul-18 16:13 33.903027 -116.527088 112 5871ft 140kts
15-Jul-18 16:14 33.886551 -116.480687 112 7714ft 145kts
15-Jul-18 16:15 33.872081 -116.430818 102 9366ft 162kts
15-Jul-18 16:16 33.862953 -116.373227 101 11094ft 181kts
15-Jul-18 16:17 33.853013 -116.312179 100 12932ft 198kts
15-Jul-18 16:18 33.840747 -116.235225 100 13024ft 270kts
15-Jul-18 16:19 33.825539 -116.140348 101 12998ft 306kts
15-Jul-18 16:20 33.812279 -116.057797 100 14107ft 285kts
15-Jul-18 16:21 33.798662 -115.974757 100 17159ft 220kts
15-Jul-18 16:22 33.785042 -115.892792 99 19343ft 212kts
15-Jul-18 16:23 33.772927 -115.820308 98 20731ft 228kts
15-Jul-18 16:24 33.759271 -115.735736 98 20846ft 281kts
15-Jul-18 16:25 33.746258 -115.655606 99 20851ft 304kts
15-Jul-18 16:26 33.729500 -115.552928 99 20855ft 321kts
15-Jul-18 16:27 33.711879 -115.446226 100 20857ft 330kts
15-Jul-18 16:28 33.693852 -115.337543 100 20856ft 334kts
15-Jul-18 16:29 33.675496 -115.228225 100 20943ft 333kts
15-Jul-18 16:30 33.657361 -115.119872 100 21033ft 332kts
15-Jul-18 16:31 33.638846 -115.010984 100 21003ft 334kts
15-Jul-18 16:32 33.620341 -114.902468 100 21004ft 334kts
15-Jul-18 16:33 33.601617 -114.793318 101 20828ft 334kts
15-Jul-18 16:34 33.591578 -114.682954 91 19624ft 335kts
15-Jul-18 16:35 33.586826 -114.572643 93 18556ft 328kts
15-Jul-18 16:36 33.581419 -114.465534 92 17971ft 320kts
15-Jul-18 16:37 33.576149 -114.358798 92 17373ft 325kts
15-Jul-18 16:38 33.570588 -114.250899 92 17037ft 321kts
15-Jul-18 16:39 33.565277 -114.145932 92 17032ft 312kts
15-Jul-18 16:40 33.559845 -114.042734 92 17035ft 309kts
15-Jul-18 16:41 33.554393 -113.940235 92 17036ft 308kts
15-Jul-18 16:42 33.548886 -113.838300 92 17039ft 307kts
15-Jul-18 16:43 33.543279 -113.736062 92 17036ft 308kts
15-Jul-18 16:44 33.537673 -113.634407 92 17053ft 307kts
15-Jul-18 16:45 33.531868 -113.532405 92 17059ft 308kts
15-Jul-18 16:46 33.526022 -113.430864 92 17066ft 308kts
15-Jul-18 16:47 33.520087 -113.328488 92 17072ft 314kts
15-Jul-18 16:48 33.513914 -113.223761 92 17062ft 321kts
15-Jul-18 16:49 33.507534 -113.117401 92 16870ft 330kts
15-Jul-18 16:50 33.500696 -113.005442 92 15082ft 346kts
15-Jul-18 16:51 33.493485 -112.891577 92 13106ft 334kts
15-Jul-18 16:52 33.486965 -112.785791 92 11294ft 307kts
15-Jul-18 16:53 33.480964 -112.696292 97 10943ft 242kts
15-Jul-18 16:54 33.465700 -112.613831 101 9765ft 264kts
15-Jul-18 16:55 33.451256 -112.528686 101 9081ft 254kts
15-Jul-18 16:56 33.437326 -112.446889 100 8319ft 253kts
15-Jul-18 16:57 33.430637 -112.367050 93 6803ft 229kts
15-Jul-18 16:58 33.429410 -112.287647 90 5363ft 246kts
15-Jul-18 16:59 33.429244 -112.209295 90 4076ft 225kts
15-Jul-18 17:00 33.429057 -112.136383 90 2915ft 213kts
15-Jul-18 17:01 33.428912 -112.069266 90 1840ft 186kts
15-Jul-18 17:02 33.428872 -112.017801 89 1143ft 99kts
15-Jul-18 17:03 33.429699 -112.007476 46 1142ft 11kts
15-Jul-18 17:04 33.431699 -112.006184 37 1142ft 0kts
15-Jul-18 17:05 33.431699 -112.006184 37 1142ft 0kts
15-Jul-18 17:06 33.432177 -112.009043 270 1142ft 18kts
15-Jul-18 17:07 33.433397 -112.009415 88 1142ft 2kts
15-Jul-18 17:08 33.433397 -112.009398 88 1142ft 0kts

Navigation Log

Ident Type
Flight plan parsing failed, navigation log unavailable